Time;durP1;ratioP1;P1;durP2;ratioP2;P2;SDS_P1;SDS_P2;PMS_P1;PMS_P2;Temp;Humidity;BMP_temperature;BMP_pressure;BME280_temperature;BME280_humidity;BME280_pressure;Samples;Min_cycle;Max_cycle;Signal;HPM_P1;HPM_P2
2022/11/06 00:00:19;;;;;;;0.20;0.10;;;;;;;;;;5075427;27;20046;-85
2022/11/06 00:02:46;;;;;;;0.20;0.10;;;;;;;;;;5094442;27;20087;-83
2022/11/06 00:07:57;;;;;;;0.20;0.10;;;;;;;;;;5110485;27;20044;-86
2022/11/06 00:10:23;;;;;;;0.20;0.10;;;;;;;;;;5106444;27;20586;-87
2022/11/06 00:12:49;;;;;;;0.20;0.10;;;;;;;;;;5089821;27;20094;-85
2022/11/06 00:15:18;;;;;;;0.20;0.10;;;;;;;;;;5112020;27;20115;-85
2022/11/06 00:17:44;;;;;;;0.20;0.17;;;;;;;;;;5102292;27;20035;-85
2022/11/06 00:20:10;;;;;;;0.20;0.10;;;;;;;;;;5082297;27;20043;-85
2022/11/06 00:22:37;;;;;;;0.20;0.10;;;;;;;;;;5099433;27;20031;-85
2022/11/06 00:25:04;;;;;;;0.20;0.10;;;;;;;;;;5097736;27;20046;-86
2022/11/06 00:27:30;;;;;;;0.20;0.10;;;;;;;;;;5100277;27;20515;-87
2022/11/06 00:29:56;;;;;;;0.20;0.20;;;;;;;;;;5115541;27;20062;-87
2022/11/06 00:32:22;;;;;;;0.20;0.20;;;;;;;;;;5089095;27;20039;-85
2022/11/06 00:34:49;;;;;;;0.55;0.25;;;;;;;;;;5079582;27;20108;-85
2022/11/06 00:37:17;;;;;;;0.20;0.00;;;;;;;;;;5114516;27;20046;-88
2022/11/06 00:39:43;;;;;;;0.32;0.32;;;;;;;;;;5079577;27;20430;-81
2022/11/06 00:42:09;;;;;;;0.20;0.10;;;;;;;;;;5093956;27;20038;-83
2022/11/06 00:44:35;;;;;;;0.20;0.10;;;;;;;;;;5077661;27;20048;-84
2022/11/06 00:47:01;;;;;;;0.20;0.10;;;;;;;;;;5110046;27;20051;-91
2022/11/06 00:49:28;;;;;;;0.20;0.10;;;;;;;;;;5095288;27;20038;-83
2022/11/06 00:51:54;;;;;;;0.50;0.50;;;;;;;;;;5108547;27;20047;-86
2022/11/06 00:54:20;;;;;;;0.45;0.20;;;;;;;;;;5094547;27;20078;-82
2022/11/06 00:56:46;;;;;;;0.20;0.10;;;;;;;;;;5093367;27;20269;-82
2022/11/06 00:59:13;;;;;;;0.20;0.10;;;;;;;;;;5081138;27;21053;-84
2022/11/06 01:01:43;;;;;;;0.20;0.20;;;;;;;;;;5110039;27;20414;-87
2022/11/06 01:04:13;;;;;;;0.20;0.10;;;;;;;;;;5093347;27;20042;-85
2022/11/06 01:06:41;;;;;;;0.20;0.10;;;;;;;;;;5107376;27;20499;-86
2022/11/06 01:09:08;;;;;;;0.20;0.10;;;;;;;;;;5092251;27;20043;-85
2022/11/06 01:11:42;;;;;;;0.20;0.10;;;;;;;;;;5091826;27;20357;-84
2022/11/06 01:14:17;;;;;;;0.20;0.20;;;;;;;;;;5101771;27;20043;-85
2022/11/06 01:16:43;;;;;;;0.20;0.10;;;;;;;;;;5095673;27;20117;-85
2022/11/06 01:19:11;;;;;;;0.38;0.17;;;;;;;;;;5098202;27;20545;-87
2022/11/06 01:21:41;;;;;;;0.20;0.10;;;;;;;;;;5113649;27;20088;-83
2022/11/06 01:24:14;;;;;;;0.20;0.10;;;;;;;;;;5110730;27;20039;-86
2022/11/06 01:26:44;;;;;;;0.20;0.10;;;;;;;;;;5125626;27;20318;-83
2022/11/06 01:29:11;;;;;;;0.20;0.15;;;;;;;;;;5099733;27;20148;-84
2022/11/06 01:31:37;;;;;;;0.70;0.25;;;;;;;;;;5111985;27;20036;-86
2022/11/06 01:34:03;;;;;;;0.20;0.10;;;;;;;;;;5098778;27;20180;-87
2022/11/06 01:36:30;;;;;;;0.20;0.10;;;;;;;;;;5097297;27;20034;-84
2022/11/06 01:38:57;;;;;;;0.20;0.10;;;;;;;;;;5110391;27;20124;-86
2022/11/06 01:41:25;;;;;;;0.20;0.10;;;;;;;;;;5096735;27;20031;-83
2022/11/06 01:43:56;;;;;;;0.20;0.15;;;;;;;;;;5105481;27;20043;-85
2022/11/06 01:46:25;;;;;;;0.20;0.10;;;;;;;;;;5106593;27;20043;-88
2022/11/06 01:48:57;;;;;;;0.20;0.10;;;;;;;;;;5093096;27;20066;-84
2022/11/06 01:51:26;;;;;;;0.20;0.10;;;;;;;;;;5111037;27;20405;-85
2022/11/06 01:53:53;;;;;;;0.20;0.10;;;;;;;;;;5096743;27;20177;-85
2022/11/06 01:56:19;;;;;;;0.20;0.10;;;;;;;;;;5110526;27;20039;-85
2022/11/06 01:58:47;;;;;;;0.20;0.10;;;;;;;;;;5093834;22;20051;-86
2022/11/06 02:01:19;;;;;;;0.20;0.10;;;;;;;;;;5061466;28;20044;-86
2022/11/06 02:03:51;;;;;;;0.25;0.13;;;;;;;;;;5062576;28;20040;-85
2022/11/06 02:06:29;;;;;;;0.30;0.30;;;;;;;;;;5077517;28;20040;-87
2022/11/06 02:08:55;;;;;;;0.20;0.10;;;;;;;;;;5046567;28;20119;-86
2022/11/06 02:11:24;;;;;;;0.20;0.10;;;;;;;;;;5063758;28;20688;-89
2022/11/06 02:14:15;;;;;;;2.30;1.65;;;;;;;;;;5077278;28;20067;-87
2022/11/06 02:16:49;;;;;;;0.20;0.10;;;;;;;;;;5081990;28;20040;-85
2022/11/06 02:19:42;;;;;;;0.20;0.10;;;;;;;;;;5065916;28;20044;-86
2022/11/06 02:22:32;;;;;;;0.20;0.10;;;;;;;;;;5057700;28;20052;-85
2022/11/06 02:25:01;;;;;;;0.20;0.10;;;;;;;;;;5062855;28;20040;-88
2022/11/06 02:27:31;;;;;;;0.20;0.10;;;;;;;;;;5066287;28;20046;-88
2022/11/06 02:30:11;;;;;;;0.20;0.10;;;;;;;;;;5065781;28;20046;-87
2022/11/06 02:32:44;;;;;;;0.20;0.10;;;;;;;;;;5065087;28;20047;-86
2022/11/06 02:35:30;;;;;;;0.20;0.10;;;;;;;;;;5060261;28;20279;-86
2022/11/06 02:37:59;;;;;;;0.20;0.10;;;;;;;;;;5068351;28;20046;-84
2022/11/06 02:40:30;;;;;;;0.20;0.10;;;;;;;;;;5059719;28;20529;-83
2022/11/06 02:42:57;;;;;;;0.20;0.20;;;;;;;;;;5063518;28;20712;-87
2022/11/06 02:45:24;;;;;;;0.20;0.10;;;;;;;;;;5064594;28;20122;-82
2022/11/06 02:47:53;;;;;;;0.30;0.10;;;;;;;;;;5079152;28;20962;-88
2022/11/06 02:50:41;;;;;;;0.20;0.10;;;;;;;;;;5081998;28;20032;-86
2022/11/06 02:53:23;;;;;;;0.20;0.10;;;;;;;;;;5065954;28;20036;-89
2022/11/06 02:55:55;;;;;;;0.20;0.10;;;;;;;;;;5065138;28;20050;-85
2022/11/06 02:58:24;;;;;;;0.20;0.10;;;;;;;;;;5061654;28;20031;-85
2022/11/06 03:00:52;;;;;;;0.20;0.10;;;;;;;;;;5065832;28;20086;-86
2022/11/06 03:03:26;;;;;;;0.20;0.10;;;;;;;;;;5080725;28;20059;-87
2022/11/06 03:05:56;;;;;;;0.20;0.10;;;;;;;;;;5059176;28;20036;-85
2022/11/06 03:08:28;;;;;;;0.20;0.10;;;;;;;;;;5078099;28;21389;-85
2022/11/06 03:11:03;;;;;;;0.20;0.20;;;;;;;;;;5063099;28;20053;-86
2022/11/06 03:13:42;;;;;;;0.20;0.10;;;;;;;;;;5080755;28;20487;-86
2022/11/06 03:16:15;;;;;;;0.20;0.10;;;;;;;;;;5058383;28;20040;-86
2022/11/06 03:18:45;;;;;;;0.20;0.10;;;;;;;;;;5061235;28;20076;-83
2022/11/06 03:21:24;;;;;;;0.20;0.15;;;;;;;;;;5058074;28;20075;-84
2022/11/06 03:24:01;;;;;;;0.20;0.10;;;;;;;;;;5075239;28;20043;-83
2022/11/06 03:26:33;;;;;;;0.20;0.10;;;;;;;;;;5064428;28;20036;-87
2022/11/06 03:29:02;;;;;;;0.20;0.10;;;;;;;;;;5098600;22;20049;-78
2022/11/06 03:31:37;;;;;;;0.20;0.10;;;;;;;;;;5078660;28;20669;-76
2022/11/06 03:34:06;;;;;;;0.20;0.20;;;;;;;;;;5107544;27;20373;-77
2022/11/06 03:36:34;;;;;;;0.20;0.10;;;;;;;;;;5075297;28;20032;-79
2022/11/06 03:39:02;;;;;;;0.20;0.10;;;;;;;;;;5088834;28;20402;-78
2022/11/06 03:41:28;;;;;;;0.30;0.10;;;;;;;;;;5089399;28;20411;-76
2022/11/06 03:43:55;;;;;;;2.40;0.40;;;;;;;;;;5075311;28;20044;-77
2022/11/06 03:46:24;;;;;;;0.20;0.10;;;;;;;;;;5087971;28;20100;-77
2022/11/06 03:48:55;;;;;;;0.20;0.10;;;;;;;;;;5077431;28;20043;-78
2022/11/06 03:51:24;;;;;;;0.20;0.10;;;;;;;;;;5074260;28;20796;-76
2022/11/06 03:53:51;;;;;;;0.20;0.10;;;;;;;;;;5089469;28;20181;-77
2022/11/06 03:56:36;;;;;;;0.20;0.10;;;;;;;;;;5083932;28;20051;-79
2022/11/06 03:59:04;;;;;;;0.20;0.00;;;;;;;;;;5085723;28;20039;-79
2022/11/06 04:01:33;;;;;;;0.20;0.10;;;;;;;;;;5069607;28;20044;-76
2022/11/06 04:04:02;;;;;;;0.20;0.10;;;;;;;;;;5066593;28;20047;-77
2022/11/06 04:06:28;;;;;;;0.20;0.10;;;;;;;;;;5067708;28;20549;-77
2022/11/06 04:14:30;;;;;;;0.30;0.20;;;;;;;;;;5091050;28;20044;-79
2022/11/06 04:16:58;;;;;;;0.20;0.10;;;;;;;;;;5064714;28;20032;-76
2022/11/06 04:19:24;;;;;;;0.20;0.10;;;;;;;;;;5090454;28;20067;-78
2022/11/06 04:22:03;;;;;;;0.20;0.10;;;;;;;;;;5090152;28;20046;-78
2022/11/06 04:27:56;;;;;;;0.20;0.20;;;;;;;;;;5086029;28;20062;-77
2022/11/06 04:30:22;;;;;;;0.20;0.10;;;;;;;;;;5090775;28;20047;-77
2022/11/06 04:33:10;;;;;;;0.20;0.10;;;;;;;;;;5072520;28;20065;-80
2022/11/06 04:35:39;;;;;;;0.20;0.10;;;;;;;;;;5091264;28;20086;-79
2022/11/06 04:38:09;;;;;;;0.20;0.13;;;;;;;;;;5074751;28;20044;-76
2022/11/06 04:41:11;;;;;;;0.20;0.10;;;;;;;;;;5073230;28;20128;-78
2022/11/06 04:43:43;;;;;;;0.25;0.10;;;;;;;;;;5032391;28;20115;-78
2022/11/06 04:46:11;;;;;;;0.20;0.10;;;;;;;;;;5059832;28;20055;-78
2022/11/06 04:48:38;;;;;;;0.20;0.10;;;;;;;;;;5086977;28;20042;-75
2022/11/06 04:51:06;;;;;;;0.20;0.10;;;;;;;;;;5053619;28;20036;-77
2022/11/06 04:53:32;;;;;;;0.20;0.10;;;;;;;;;;5091738;28;20093;-79
2022/11/06 04:56:06;;;;;;;0.20;0.10;;;;;;;;;;5089107;28;20103;-77
2022/11/06 04:58:32;;;;;;;0.20;0.10;;;;;;;;;;5072063;28;20444;-79
2022/11/06 05:00:58;;;;;;;0.20;0.10;;;;;;;;;;5048807;28;20105;-78
2022/11/06 05:03:24;;;;;;;0.20;0.10;;;;;;;;;;5051421;28;21760;-79
2022/11/06 05:05:50;;;;;;;0.20;0.10;;;;;;;;;;5073773;28;20382;-77
2022/11/06 05:08:18;;;;;;;0.20;0.10;;;;;;;;;;5066521;28;20320;-77
2022/11/06 05:10:44;;;;;;;0.20;0.10;;;;;;;;;;5069912;28;20032;-76
2022/11/06 05:13:10;;;;;;;0.20;0.10;;;;;;;;;;5088582;28;20071;-76
2022/11/06 05:15:37;;;;;;;0.20;0.13;;;;;;;;;;5075513;28;20173;-78
2022/11/06 05:18:03;;;;;;;0.20;0.10;;;;;;;;;;5075062;28;20644;-77
2022/11/06 05:20:30;;;;;;;0.20;0.17;;;;;;;;;;5077944;28;20087;-76
2022/11/06 05:23:01;;;;;;;0.20;0.10;;;;;;;;;;5069781;28;20418;-77
2022/11/06 05:25:29;;;;;;;0.20;0.10;;;;;;;;;;5080571;28;20028;-79
2022/11/06 05:27:55;;;;;;;0.20;0.10;;;;;;;;;;5096456;28;20036;-77
2022/11/06 05:30:22;;;;;;;0.20;0.10;;;;;;;;;;5097624;28;20062;-77
2022/11/06 05:32:48;;;;;;;0.20;0.10;;;;;;;;;;5095634;28;20044;-77
2022/11/06 05:35:14;;;;;;;0.20;0.10;;;;;;;;;;5108349;27;20476;-77
2022/11/06 05:37:40;;;;;;;0.20;0.05;;;;;;;;;;5075302;28;20753;-77
2022/11/06 05:40:07;;;;;;;0.20;0.10;;;;;;;;;;5078441;28;20095;-79
2022/11/06 05:42:33;;;;;;;0.20;0.10;;;;;;;;;;5095113;28;20431;-77
2022/11/06 05:45:00;;;;;;;0.20;0.10;;;;;;;;;;5094721;28;20398;-76
2022/11/06 05:47:26;;;;;;;0.20;0.10;;;;;;;;;;5078293;28;20146;-76
2022/11/06 05:49:52;;;;;;;0.20;0.10;;;;;;;;;;5097879;28;20047;-77
2022/11/06 05:52:18;;;;;;;0.20;0.10;;;;;;;;;;5092237;28;20043;-78
2022/11/06 05:54:44;;;;;;;0.20;0.10;;;;;;;;;;5078960;28;20042;-78
2022/11/06 05:57:10;;;;;;;0.20;0.10;;;;;;;;;;5077042;28;20036;-76
2022/11/06 05:59:36;;;;;;;0.20;0.10;;;;;;;;;;5057846;28;20032;-76
2022/11/06 06:02:02;;;;;;;0.22;0.17;;;;;;;;;;5082250;28;20831;-77
2022/11/06 06:04:28;;;;;;;0.20;0.10;;;;;;;;;;5057359;28;20525;-77
2022/11/06 06:06:54;;;;;;;0.20;0.10;;;;;;;;;;5075085;28;20032;-78
2022/11/06 06:09:20;;;;;;;0.20;0.10;;;;;;;;;;5079200;28;20035;-77
2022/11/06 06:11:49;;;;;;;0.20;0.10;;;;;;;;;;5087742;28;20065;-75
2022/11/06 06:14:15;;;;;;;0.32;0.32;;;;;;;;;;5075611;28;20050;-76
2022/11/06 06:16:41;;;;;;;0.90;0.30;;;;;;;;;;5068701;28;20747;-77
2022/11/06 06:19:07;;;;;;;0.20;0.20;;;;;;;;;;5059789;28;20032;-77
2022/11/06 06:21:35;;;;;;;0.20;0.10;;;;;;;;;;5061144;28;20472;-76
2022/11/06 06:24:01;;;;;;;0.20;0.10;;;;;;;;;;5087865;28;20047;-76
2022/11/06 06:26:27;;;;;;;0.20;0.10;;;;;;;;;;5074124;28;20039;-78
2022/11/06 06:28:53;;;;;;;0.20;0.10;;;;;;;;;;5072014;28;20031;-77
2022/11/06 06:31:19;;;;;;;0.22;0.13;;;;;;;;;;5072923;28;20039;-77
2022/11/06 06:33:45;;;;;;;0.20;0.10;;;;;;;;;;5090726;28;20044;-78
2022/11/06 06:36:12;;;;;;;0.20;0.10;;;;;;;;;;5072532;28;20448;-77
2022/11/06 06:38:38;;;;;;;0.20;0.10;;;;;;;;;;5075852;28;20118;-75
2022/11/06 06:41:05;;;;;;;0.20;0.10;;;;;;;;;;5070876;28;20111;-78
2022/11/06 06:43:31;;;;;;;0.20;0.10;;;;;;;;;;5071695;28;20035;-78
2022/11/06 06:45:58;;;;;;;0.20;0.10;;;;;;;;;;5072859;28;20046;-77
2022/11/06 06:48:24;;;;;;;0.40;0.10;;;;;;;;;;5068912;28;20070;-76
2022/11/06 06:50:50;;;;;;;0.20;0.10;;;;;;;;;;5075049;28;20047;-79
2022/11/06 06:53:17;;;;;;;0.20;0.10;;;;;;;;;;5069632;28;20497;-78
2022/11/06 06:55:43;;;;;;;0.25;0.25;;;;;;;;;;5088671;28;20447;-77
2022/11/06 06:58:10;;;;;;;0.20;0.10;;;;;;;;;;5082088;28;20216;-77
2022/11/06 07:00:36;;;;;;;0.20;0.10;;;;;;;;;;5097035;28;20031;-77
2022/11/06 07:03:02;;;;;;;0.20;0.10;;;;;;;;;;5074346;28;20430;-76
2022/11/06 07:05:28;;;;;;;0.20;0.10;;;;;;;;;;5094297;28;20039;-76
2022/11/06 07:07:54;;;;;;;0.20;0.10;;;;;;;;;;5075101;28;20051;-76
2022/11/06 07:10:20;;;;;;;0.20;0.10;;;;;;;;;;5094831;28;20043;-79
2022/11/06 07:12:46;;;;;;;0.20;0.10;;;;;;;;;;5079240;28;20204;-78
2022/11/06 07:15:12;;;;;;;0.20;0.10;;;;;;;;;;5082290;28;20047;-79
2022/11/06 07:17:38;;;;;;;0.20;0.10;;;;;;;;;;5055491;28;20118;-77
2022/11/06 07:20:05;;;;;;;0.20;0.10;;;;;;;;;;5049264;28;20040;-78
2022/11/06 07:22:31;;;;;;;0.20;0.10;;;;;;;;;;5081338;28;20714;-79
2022/11/06 07:24:57;;;;;;;0.20;0.10;;;;;;;;;;5073975;28;20044;-78
2022/11/06 07:27:23;;;;;;;0.20;0.10;;;;;;;;;;5085716;28;20043;-79
2022/11/06 07:29:49;;;;;;;0.20;0.10;;;;;;;;;;5096063;28;20051;-77
2022/11/06 07:32:15;;;;;;;0.20;0.10;;;;;;;;;;5089332;28;20127;-77
2022/11/06 07:34:41;;;;;;;0.20;0.10;;;;;;;;;;5089458;28;20131;-78
2022/11/06 07:37:07;;;;;;;0.20;0.10;;;;;;;;;;5078621;28;20036;-80
2022/11/06 07:39:34;;;;;;;0.20;0.10;;;;;;;;;;5048954;28;20109;-78
2022/11/06 07:42:00;;;;;;;0.20;0.10;;;;;;;;;;5072946;28;20035;-77
2022/11/06 07:44:26;;;;;;;0.20;0.10;;;;;;;;;;5089416;28;20028;-78
2022/11/06 07:46:52;;;;;;;0.28;0.28;;;;;;;;;;5053647;28;20035;-78
2022/11/06 07:49:18;;;;;;;0.20;0.10;;;;;;;;;;5091777;28;20039;-79
2022/11/06 07:51:44;;;;;;;0.20;0.10;;;;;;;;;;5074254;28;20038;-78
2022/11/06 07:54:10;;;;;;;0.20;0.10;;;;;;;;;;5093932;27;20041;-77
2022/11/06 07:56:37;;;;;;;1.55;0.57;;;;;;;;;;5070863;28;20040;-78
2022/11/06 07:59:03;;;;;;;2.60;0.38;;;;;;;;;;5063704;28;20038;-78
2022/11/06 08:01:29;;;;;;;0.20;0.10;;;;;;;;;;5067370;28;20140;-77
2022/11/06 08:03:55;;;;;;;0.20;0.10;;;;;;;;;;5055711;28;20400;-78
2022/11/06 08:06:21;;;;;;;0.20;0.10;;;;;;;;;;5088983;28;20047;-79
2022/11/06 08:08:47;;;;;;;0.20;0.10;;;;;;;;;;5059933;28;20126;-77
2022/11/06 08:11:14;;;;;;;0.20;0.10;;;;;;;;;;5054909;28;20678;-77
2022/11/06 08:13:40;;;;;;;0.20;0.10;;;;;;;;;;5070680;28;20057;-78
2022/11/06 08:16:07;;;;;;;0.20;0.10;;;;;;;;;;5091231;28;20122;-76
2022/11/06 08:18:34;;;;;;;0.20;0.10;;;;;;;;;;5089448;28;20037;-78
2022/11/06 08:21:00;;;;;;;0.20;0.10;;;;;;;;;;5071991;28;20131;-78
2022/11/06 08:23:26;;;;;;;0.20;0.10;;;;;;;;;;5084157;28;20032;-77
2022/11/06 08:25:59;;;;;;;0.20;0.10;;;;;;;;;;5070333;28;20073;-77
2022/11/06 08:28:26;;;;;;;0.20;0.10;;;;;;;;;;5080655;28;20650;-78
2022/11/06 08:30:52;;;;;;;0.20;0.10;;;;;;;;;;5065594;28;20117;-78
2022/11/06 08:33:18;;;;;;;0.20;0.10;;;;;;;;;;5057450;28;20059;-77
2022/11/06 08:35:44;;;;;;;0.77;0.25;;;;;;;;;;5071191;28;20931;-76
2022/11/06 08:38:10;;;;;;;0.95;0.95;;;;;;;;;;5088272;28;20032;-77
2022/11/06 08:40:38;;;;;;;0.20;0.10;;;;;;;;;;5070919;28;20780;-78
2022/11/06 08:43:09;;;;;;;0.20;0.10;;;;;;;;;;5083189;27;20584;-76
2022/11/06 08:45:36;;;;;;;0.20;0.10;;;;;;;;;;5067872;28;20043;-76
2022/11/06 08:48:03;;;;;;;0.20;0.10;;;;;;;;;;5097986;27;20039;-78
2022/11/06 08:50:30;;;;;;;0.20;0.13;;;;;;;;;;5058113;28;20054;-77
2022/11/06 08:53:02;;;;;;;0.30;0.30;;;;;;;;;;5089098;28;20118;-78
2022/11/06 08:55:28;;;;;;;0.20;0.10;;;;;;;;;;5077784;28;20047;-77
2022/11/06 08:57:55;;;;;;;0.20;0.10;;;;;;;;;;5078517;28;20036;-78
2022/11/06 09:00:21;;;;;;;0.20;0.10;;;;;;;;;;5088709;28;20490;-81
2022/11/06 09:02:47;;;;;;;0.20;0.20;;;;;;;;;;5084866;28;20040;-81
2022/11/06 09:05:13;;;;;;;0.20;0.10;;;;;;;;;;5057108;28;20332;-76
2022/11/06 09:07:39;;;;;;;0.20;0.10;;;;;;;;;;5069153;28;20070;-77
2022/11/06 09:10:05;;;;;;;0.20;0.10;;;;;;;;;;5086634;27;20089;-77
2022/11/06 09:12:31;;;;;;;0.20;0.10;;;;;;;;;;5077393;28;20070;-78
2022/11/06 09:14:57;;;;;;;0.20;0.10;;;;;;;;;;5091473;28;20043;-76
2022/11/06 09:17:23;;;;;;;0.20;0.10;;;;;;;;;;5055044;28;20564;-78
2022/11/06 09:19:50;;;;;;;0.20;0.10;;;;;;;;;;5089261;28;20044;-76
2022/11/06 09:22:17;;;;;;;0.20;0.10;;;;;;;;;;5058011;28;20105;-76
2022/11/06 09:24:43;;;;;;;0.20;0.10;;;;;;;;;;5076404;28;20043;-76
2022/11/06 09:27:09;;;;;;;0.20;0.10;;;;;;;;;;5079306;28;20042;-77
2022/11/06 09:29:39;;;;;;;0.20;0.10;;;;;;;;;;5076230;22;20528;-84
2022/11/06 09:32:05;;;;;;;0.20;0.10;;;;;;;;;;5032274;28;20113;-84
2022/11/06 09:34:31;;;;;;;0.20;0.10;;;;;;;;;;5039120;28;20044;-84
2022/11/06 09:36:57;;;;;;;0.20;0.10;;;;;;;;;;5051593;28;20043;-85
2022/11/06 09:39:23;;;;;;;0.75;0.40;;;;;;;;;;5050195;28;20044;-85
2022/11/06 09:41:55;;;;;;;0.20;0.10;;;;;;;;;;5000749;28;20043;-82
2022/11/06 09:44:40;;;;;;;0.20;0.10;;;;;;;;;;5017238;28;20684;-84
2022/11/06 09:47:13;;;;;;;0.30;0.30;;;;;;;;;;5015241;28;20403;-85
2022/11/06 09:49:53;;;;;;;0.20;0.10;;;;;;;;;;5019992;28;20147;-82
2022/11/06 09:52:25;;;;;;;0.20;0.10;;;;;;;;;;5015020;28;20187;-83
2022/11/06 09:55:01;;;;;;;0.20;0.10;;;;;;;;;;5016621;28;20531;-85
2022/11/06 09:57:49;;;;;;;0.20;0.10;;;;;;;;;;5036269;28;20037;-83
2022/11/06 10:00:16;;;;;;;0.20;0.10;;;;;;;;;;5013432;28;20075;-85
2022/11/06 10:02:54;;;;;;;0.20;0.10;;;;;;;;;;5020551;28;20064;-85
2022/11/06 10:05:31;;;;;;;0.20;0.10;;;;;;;;;;5023573;28;20124;-86
2022/11/06 10:07:58;;;;;;;0.20;0.10;;;;;;;;;;5017436;28;20114;-84
2022/11/06 10:10:28;;;;;;;0.20;0.10;;;;;;;;;;5026236;28;20094;-85
2022/11/06 10:13:00;;;;;;;0.20;0.10;;;;;;;;;;5016728;28;20055;-84
2022/11/06 10:15:50;;;;;;;0.20;0.10;;;;;;;;;;5010823;28;20059;-83
2022/11/06 10:18:25;;;;;;;0.20;0.20;;;;;;;;;;5031866;28;20151;-83
2022/11/06 10:20:53;;;;;;;0.20;0.10;;;;;;;;;;5020203;28;20122;-86
2022/11/06 10:23:25;;;;;;;0.20;0.10;;;;;;;;;;5014982;28;20076;-84
2022/11/06 10:26:12;;;;;;;0.20;0.10;;;;;;;;;;5026199;28;20061;-84
2022/11/06 10:29:03;;;;;;;0.20;0.10;;;;;;;;;;5005925;28;20055;-86
2022/11/06 10:31:33;;;;;;;0.20;0.10;;;;;;;;;;5013479;28;20037;-86
2022/11/06 10:34:03;;;;;;;0.20;0.20;;;;;;;;;;5014932;28;20609;-86
2022/11/06 10:36:38;;;;;;;0.20;0.10;;;;;;;;;;5033033;28;20137;-84
2022/11/06 10:39:10;;;;;;;0.20;0.10;;;;;;;;;;5013191;28;20145;-86
2022/11/06 10:41:37;;;;;;;0.20;0.10;;;;;;;;;;5021322;28;20037;-84
2022/11/06 10:44:22;;;;;;;0.20;0.10;;;;;;;;;;4995414;28;20124;-87
2022/11/06 10:46:53;;;;;;;0.20;0.10;;;;;;;;;;5013529;28;20045;-87
2022/11/06 10:49:25;;;;;;;0.20;0.10;;;;;;;;;;5016074;28;20048;-86
2022/11/06 10:52:11;;;;;;;0.20;0.10;;;;;;;;;;5011811;28;20047;-87
2022/11/06 10:54:56;;;;;;;0.20;0.10;;;;;;;;;;5029198;28;20164;-84
2022/11/06 10:57:28;;;;;;;0.20;0.10;;;;;;;;;;5011553;28;20053;-85
2022/11/06 10:59:55;;;;;;;0.20;0.10;;;;;;;;;;5028223;28;20037;-84
2022/11/06 11:02:29;;;;;;;0.20;0.10;;;;;;;;;;5019020;28;20037;-88
2022/11/06 11:04:55;;;;;;;0.20;0.10;;;;;;;;;;5034039;28;20516;-85
2022/11/06 11:07:21;;;;;;;0.20;0.10;;;;;;;;;;4999291;28;20128;-82
2022/11/06 11:09:50;;;;;;;0.20;0.10;;;;;;;;;;5011109;28;20051;-83
2022/11/06 11:12:21;;;;;;;0.20;0.10;;;;;;;;;;5016771;28;20045;-83
2022/11/06 11:15:03;;;;;;;0.20;0.10;;;;;;;;;;5055492;28;20136;-87
2022/11/06 11:17:29;;;;;;;0.20;0.10;;;;;;;;;;5028996;28;20052;-85
2022/11/06 11:20:01;;;;;;;0.20;0.10;;;;;;;;;;4999598;28;20049;-85
2022/11/06 11:22:27;;;;;;;0.20;0.00;;;;;;;;;;5025843;28;20938;-82
2022/11/06 11:25:01;;;;;;;0.20;0.10;;;;;;;;;;5009766;28;20045;-83
2022/11/06 11:27:42;;;;;;;0.20;0.10;;;;;;;;;;5008750;28;20041;-85
2022/11/06 11:30:19;;;;;;;0.20;0.00;;;;;;;;;;5028008;28;20059;-83
2022/11/06 11:32:45;;;;;;;0.20;0.10;;;;;;;;;;5030031;28;20128;-84
2022/11/06 11:35:16;;;;;;;0.20;0.10;;;;;;;;;;4996688;28;20170;-81
2022/11/06 11:37:42;;;;;;;0.20;0.10;;;;;;;;;;5013372;28;20123;-81
2022/11/06 11:40:38;;;;;;;0.20;0.10;;;;;;;;;;5011951;28;20218;-83
2022/11/06 11:43:19;;;;;;;0.20;0.10;;;;;;;;;;5003999;28;20044;-85
2022/11/06 11:46:04;;;;;;;0.20;0.10;;;;;;;;;;5005980;28;20126;-83
2022/11/06 11:48:43;;;;;;;0.20;0.10;;;;;;;;;;5021988;28;20561;-85
2022/11/06 11:51:25;;;;;;;0.20;0.10;;;;;;;;;;5018663;28;20076;-85
2022/11/06 11:53:54;;;;;;;0.47;0.17;;;;;;;;;;5007690;28;20037;-87
2022/11/06 11:56:21;;;;;;;0.20;0.10;;;;;;;;;;5012832;28;20480;-84
2022/11/06 11:58:52;;;;;;;0.20;0.10;;;;;;;;;;5015906;28;20048;-88
2022/11/06 12:01:19;;;;;;;0.20;0.10;;;;;;;;;;5013633;28;20044;-85
2022/11/06 12:03:48;;;;;;;0.20;0.10;;;;;;;;;;5025700;28;20116;-84
2022/11/06 12:06:16;;;;;;;0.20;0.10;;;;;;;;;;5044090;28;20168;-84
2022/11/06 12:08:55;;;;;;;0.20;0.10;;;;;;;;;;5025935;28;20075;-83
2022/11/06 12:11:25;;;;;;;0.20;0.10;;;;;;;;;;5006247;28;20123;-83
2022/11/06 12:14:10;;;;;;;0.20;0.00;;;;;;;;;;5003623;28;20047;-86
2022/11/06 12:16:36;;;;;;;0.20;0.10;;;;;;;;;;5011847;28;20640;-85
2022/11/06 12:19:02;;;;;;;0.20;0.10;;;;;;;;;;5028132;28;20113;-84
2022/11/06 12:21:31;;;;;;;0.20;0.10;;;;;;;;;;5011947;28;20120;-84
2022/11/06 12:24:14;;;;;;;0.20;0.00;;;;;;;;;;5023354;28;20134;-83
2022/11/06 12:26:43;;;;;;;0.20;0.10;;;;;;;;;;5010028;28;20517;-86
2022/11/06 12:29:15;;;;;;;0.20;0.10;;;;;;;;;;5023872;28;20095;-82
2022/11/06 12:31:51;;;;;;;0.20;0.10;;;;;;;;;;5006953;28;20041;-85
2022/11/06 12:34:37;;;;;;;0.20;0.10;;;;;;;;;;5008703;28;20040;-85
2022/11/06 12:37:10;;;;;;;0.20;0.10;;;;;;;;;;5013559;28;20057;-86
2022/11/06 12:39:38;;;;;;;0.20;0.10;;;;;;;;;;5028689;28;20045;-86
2022/11/06 12:42:07;;;;;;;0.20;0.10;;;;;;;;;;5027786;28;20048;-86
2022/11/06 12:44:36;;;;;;;0.20;0.10;;;;;;;;;;5007452;28;20098;-86
2022/11/06 12:47:08;;;;;;;0.20;0.10;;;;;;;;;;4999386;28;20095;-87
2022/11/06 12:49:53;;;;;;;0.20;0.10;;;;;;;;;;5014566;28;20292;-84
2022/11/06 12:52:37;;;;;;;0.20;0.10;;;;;;;;;;5021289;28;20055;-85
2022/11/06 12:55:11;;;;;;;0.20;0.05;;;;;;;;;;5003989;28;20488;-86
2022/11/06 12:57:36;;;;;;;0.20;0.10;;;;;;;;;;5024777;28;21540;-85
2022/11/06 13:00:09;;;;;;;0.20;0.10;;;;;;;;;;5015810;28;20060;-86
2022/11/06 13:02:44;;;;;;;0.20;0.10;;;;;;;;;;5026601;28;20037;-86
2022/11/06 13:05:16;;;;;;;0.20;0.10;;;;;;;;;;5012043;28;20052;-86
2022/11/06 13:08:21;;;;;;;0.20;0.10;;;;;;;;;;5009001;28;20072;-85
2022/11/06 13:10:47;;;;;;;0.20;0.10;;;;;;;;;;4944767;28;20143;-87
2022/11/06 13:13:15;;;;;;;0.20;0.10;;;;;;;;;;4949116;28;20050;-84
2022/11/06 13:15:56;;;;;;;0.20;0.03;;;;;;;;;;4987907;28;20065;-88
2022/11/06 13:18:30;;;;;;;0.20;0.00;;;;;;;;;;5018797;28;20106;-87
2022/11/06 13:21:19;;;;;;;0.20;0.10;;;;;;;;;;5016368;28;20056;-86
2022/11/06 13:23:56;;;;;;;0.20;0.10;;;;;;;;;;5024140;28;20188;-86
2022/11/06 13:26:30;;;;;;;0.20;0.10;;;;;;;;;;5015403;28;20124;-83
2022/11/06 13:28:58;;;;;;;0.20;0.10;;;;;;;;;;5031901;28;20099;-84
2022/11/06 13:31:30;;;;;;;0.20;0.10;;;;;;;;;;5019289;28;20033;-82
2022/11/06 13:33:56;;;;;;;;;;;;;;;;;;5019141;28;20045;-86
2022/11/06 13:36:26;;;;;;;0.20;0.10;;;;;;;;;;5032664;28;19916;-86
2022/11/06 13:39:19;;;;;;;0.20;0.10;;;;;;;;;;5017307;28;20032;-82
2022/11/06 13:41:45;;;;;;;0.20;0.10;;;;;;;;;;5006671;28;20080;-85
2022/11/06 13:44:14;;;;;;;0.20;0.10;;;;;;;;;;5034241;28;20452;-80
2022/11/06 13:46:40;;;;;;;0.20;0.10;;;;;;;;;;5019653;28;20037;-86
2022/11/06 13:49:10;;;;;;;0.20;0.10;;;;;;;;;;5019607;28;20116;-85
2022/11/06 13:51:53;;;;;;;0.20;0.10;;;;;;;;;;5035492;28;20053;-85
2022/11/06 13:54:19;;;;;;;0.20;0.10;;;;;;;;;;5012243;28;20171;-86
2022/11/06 13:56:45;;;;;;;0.20;0.10;;;;;;;;;;5032141;28;20048;-84
2022/11/06 13:59:14;;;;;;;0.20;0.00;;;;;;;;;;5029123;28;20040;-87
2022/11/06 14:02:06;;;;;;;0.20;0.10;;;;;;;;;;5037366;28;20045;-86
2022/11/06 14:04:38;;;;;;;0.20;0.10;;;;;;;;;;5048206;28;20119;-83
2022/11/06 14:07:08;;;;;;;0.20;0.10;;;;;;;;;;5030252;28;20147;-86
2022/11/06 14:09:35;;;;;;;0.20;0.10;;;;;;;;;;5020050;28;20047;-85
2022/11/06 14:12:06;;;;;;;0.20;0.10;;;;;;;;;;5020081;28;20107;-84
2022/11/06 14:14:39;;;;;;;0.20;0.10;;;;;;;;;;5046367;28;20048;-84
2022/11/06 14:17:19;;;;;;;0.20;0.10;;;;;;;;;;5032504;28;20048;-85
2022/11/06 14:19:45;;;;;;;0.20;0.10;;;;;;;;;;5014945;28;20037;-86
2022/11/06 14:22:25;;;;;;;0.30;0.30;;;;;;;;;;5021416;28;20064;-85
2022/11/06 14:24:52;;;;;;;0.20;0.10;;;;;;;;;;5011741;28;20036;-84
2022/11/06 14:27:21;;;;;;;0.20;0.10;;;;;;;;;;5031041;28;20403;-86
2022/11/06 14:30:04;;;;;;;0.20;0.10;;;;;;;;;;5029125;28;20044;-84
2022/11/06 14:32:30;;;;;;;0.20;0.10;;;;;;;;;;5020595;28;20676;-83
2022/11/06 14:34:59;;;;;;;0.20;0.10;;;;;;;;;;5019545;28;20052;-87
2022/11/06 14:37:28;;;;;;;0.20;0.10;;;;;;;;;;5011987;28;20041;-83
2022/11/06 14:39:54;;;;;;;0.20;0.10;;;;;;;;;;5018351;28;20040;-84
2022/11/06 14:42:23;;;;;;;0.20;0.00;;;;;;;;;;5009453;28;20042;-83
2022/11/06 14:44:52;;;;;;;0.20;0.08;;;;;;;;;;5012091;28;20063;-84
2022/11/06 14:47:22;;;;;;;0.20;0.10;;;;;;;;;;5028108;28;20044;-84
2022/11/06 14:49:52;;;;;;;0.20;0.10;;;;;;;;;;5024294;28;20045;-86
2022/11/06 14:52:19;;;;;;;0.20;0.10;;;;;;;;;;5029890;28;20503;-84
2022/11/06 14:55:00;;;;;;;0.20;0.10;;;;;;;;;;5027352;28;20044;-88
2022/11/06 14:57:41;;;;;;;0.20;0.00;;;;;;;;;;5013686;28;20152;-86
2022/11/06 15:00:31;;;;;;;0.20;0.08;;;;;;;;;;5030126;28;20037;-88
2022/11/06 15:02:57;;;;;;;0.20;0.10;;;;;;;;;;5009455;28;20029;-88
2022/11/06 15:05:25;;;;;;;0.20;0.10;;;;;;;;;;5011568;28;20419;-82
2022/11/06 15:07:56;;;;;;;0.20;0.10;;;;;;;;;;5026505;28;20045;-87
2022/11/06 15:10:41;;;;;;;0.20;0.10;;;;;;;;;;5012487;28;20102;-86
2022/11/06 15:13:11;;;;;;;0.20;0.10;;;;;;;;;;5013774;28;20042;-84